Time;durP1;ratioP1;P1;durP2;ratioP2;P2;SDS_P1;SDS_P2;PMS_P1;PMS_P2;Temp;Humidity;BMP_temperature;BMP_pressure;BME280_temperature;BME280_humidity;BME280_pressure;Samples;Min_cycle;Max_cycle;Signal;HPM_P1;HPM_P2
2022/03/14 00:02:54;;;;;;;20.65;9.57;;;;;;;-12.94;43.36;97174.31;6323498;28;20054;-63
2022/03/14 00:05:56;;;;;;;22.80;10.02;;;;;;;-13.01;43.50;97172.41;6323922;28;20525;-62
2022/03/14 00:08:57;;;;;;;19.58;9.43;;;;;;;-13.08;43.65;97170.50;6323703;28;20044;-63
2022/03/14 00:12:01;;;;;;;20.92;9.27;;;;;;;-13.17;43.40;97169.38;6323814;28;20040;-64
2022/03/14 00:15:08;;;;;;;19.15;8.25;;;;;;;-13.22;43.83;97173.44;6323217;28;20060;-64
2022/03/14 00:18:10;;;;;;;20.38;7.93;;;;;;;-13.29;43.53;97176.63;6323210;28;20044;-63
2022/03/14 00:21:15;;;;;;;22.05;8.07;;;;;;;-13.28;43.58;97168.22;6323558;28;20048;-65
2022/03/14 00:24:18;;;;;;;15.18;7.00;;;;;;;-13.25;43.54;97168.28;6323481;28;20518;-65
2022/03/14 00:27:23;;;;;;;18.95;8.25;;;;;;;-13.21;43.40;97172.66;6323204;28;20411;-63
2022/03/14 00:30:26;;;;;;;19.20;7.03;;;;;;;-13.18;43.58;97165.13;6323453;28;20129;-63
2022/03/14 00:33:30;;;;;;;21.67;9.40;;;;;;;-13.18;43.97;97160.06;6323221;28;20043;-63
2022/03/14 00:36:37;;;;;;;14.52;6.57;;;;;;;-13.17;43.75;97171.91;6323673;28;20047;-63
2022/03/14 00:39:38;;;;;;;15.77;6.47;;;;;;;-13.13;43.67;97171.22;6322977;28;20051;-63
2022/03/14 00:42:43;;;;;;;17.30;7.28;;;;;;;-13.15;43.69;97174.50;6323211;28;20055;-63
2022/03/14 00:45:45;;;;;;;16.50;7.13;;;;;;;-13.17;43.79;97176.97;6322623;28;20052;-63
2022/03/14 00:48:46;;;;;;;20.00;8.32;;;;;;;-13.22;43.93;97175.97;6322557;28;20044;-63
2022/03/14 00:51:48;;;;;;;18.27;7.88;;;;;;;-13.28;43.59;97168.22;6323190;28;20040;-64
2022/03/14 00:54:51;;;;;;;17.92;6.72;;;;;;;-13.27;43.58;97169.06;6322999;28;20044;-64
2022/03/14 00:57:53;;;;;;;15.30;8.52;;;;;;;-13.27;43.67;97169.94;6322707;28;20056;-63
2022/03/14 01:00:54;;;;;;;22.38;8.02;;;;;;;-13.26;43.62;97170.81;6322026;28;20048;-63
2022/03/14 01:03:59;;;;;;;19.05;8.20;;;;;;;-13.32;43.79;97176.53;6321980;28;20507;-63
2022/03/14 01:07:03;;;;;;;17.40;6.47;;;;;;;-13.41;44.14;97172.03;6322554;28;20511;-63
2022/03/14 01:10:07;;;;;;;15.68;7.22;;;;;;;-13.49;44.12;97177.66;6322411;28;20044;-63
2022/03/14 01:13:11;;;;;;;14.52;6.35;;;;;;;-13.54;44.43;97186.75;6322464;28;20048;-63
2022/03/14 01:16:15;;;;;;;12.23;5.85;;;;;;;-13.63;44.66;97182.25;6322228;28;20055;-62
2022/03/14 01:19:19;;;;;;;12.63;5.30;;;;;;;-13.83;44.86;97164.72;6321959;28;20101;-63
2022/03/14 01:22:23;;;;;;;14.90;5.93;;;;;;;-13.84;45.31;97184.88;6321195;28;20070;-63
2022/03/14 01:25:25;;;;;;;19.90;8.65;;;;;;;-13.88;45.46;97175.47;6321884;28;20044;-63
2022/03/14 01:28:26;;;;;;;21.65;8.82;;;;;;;-13.94;45.24;97177.81;6321613;28;20076;-63
2022/03/14 01:31:28;;;;;;;13.32;6.35;;;;;;;-13.95;45.43;97183.66;6321138;28;20450;-64
2022/03/14 01:34:34;;;;;;;13.20;5.60;;;;;;;-13.92;45.62;97178.72;6321560;28;20054;-64
2022/03/14 01:37:38;;;;;;;28.48;9.88;;;;;;;-13.84;44.64;97177.28;6322086;28;20044;-63
2022/03/14 01:40:43;;;;;;;8.60;5.30;;;;;;;-13.78;44.85;97175.00;6321756;28;20055;-64
2022/03/14 01:43:49;;;;;;;17.20;6.78;;;;;;;-13.74;44.88;97181.88;6321816;28;20503;-63
2022/03/14 01:46:52;;;;;;;9.27;5.53;;;;;;;-13.82;44.58;97168.94;6321578;28;20056;-63
2022/03/14 01:49:56;;;;;;;11.00;5.03;;;;;;;-13.73;44.45;97176.00;6321313;28;20055;-63
2022/03/14 01:52:57;;;;;;;10.90;5.50;;;;;;;-13.70;44.25;97183.72;6320990;28;20073;-63
2022/03/14 01:56:02;;;;;;;9.63;4.78;;;;;;;-13.65;44.41;97187.25;6321407;28;20039;-64
2022/03/14 01:59:12;;;;;;;9.02;4.65;;;;;;;-13.62;44.21;97194.06;6319941;28;20624;-63
2022/03/14 02:02:14;;;;;;;8.70;4.70;;;;;;;-13.66;44.29;97194.78;6320619;28;20506;-64
2022/03/14 02:05:16;;;;;;;12.90;5.22;;;;;;;-13.63;44.43;97205.03;6320821;28;20464;-64
2022/03/14 02:08:17;;;;;;;12.85;5.95;;;;;;;-13.76;44.68;97198.66;6320670;28;20560;-63
2022/03/14 02:11:20;;;;;;;10.93;5.28;;;;;;;-13.80;45.09;97212.03;6320886;28;20056;-64
2022/03/14 02:14:25;;;;;;;10.60;4.95;;;;;;;-13.89;45.16;97212.56;6320325;28;20094;-63
2022/03/14 02:17:31;;;;;;;8.68;4.57;;;;;;;-13.93;45.26;97209.88;6321049;28;20044;-64
2022/03/14 02:20:33;;;;;;;;;;;;;;;-13.91;44.89;97210.78;6320733;28;20051;-64
2022/03/14 02:23:36;;;;;;;10.57;5.40;;;;;;;-13.95;45.43;97211.47;6320608;28;19920;-64
2022/03/14 02:26:39;;;;;;;12.13;6.30;;;;;;;-14.00;45.23;97215.53;6320042;28;20048;-63
2022/03/14 02:29:42;;;;;;;15.10;7.90;;;;;;;-13.95;45.08;97209.81;6320169;28;20067;-63
2022/03/14 02:32:49;;;;;;;14.40;6.97;;;;;;;-13.90;45.32;97215.03;6320624;28;20134;-64
2022/03/14 02:35:51;;;;;;;16.67;7.35;;;;;;;-13.85;45.33;97213.53;6320110;28;20044;-64
2022/03/14 02:38:54;;;;;;;9.20;5.10;;;;;;;-13.76;45.40;97213.84;6319397;28;20048;-62
2022/03/14 02:41:56;;;;;;;22.50;10.27;;;;;;;-13.74;45.43;97222.34;6320023;28;20418;-64
2022/03/14 02:45:02;;;;;;;;;;;;;;;-13.75;45.37;97218.13;6320563;28;20465;-63
2022/03/14 02:48:04;;;;;;;;;;;;;;;-13.66;44.72;97220.94;6320051;28;20011;-64
2022/03/14 02:51:08;;;;;;;17.83;7.28;;;;;;;-13.54;44.67;97219.66;6319857;28;19920;-64
2022/03/14 02:54:09;;;;;;;;;;;;;;;-13.32;44.24;97224.63;6320165;28;20162;-63
2022/03/14 02:57:11;;;;;;;22.92;9.23;;;;;;;-13.18;44.43;97230.13;6319846;28;19926;-64
2022/03/14 03:00:13;;;;;;;22.60;8.50;;;;;;;-13.06;43.64;97214.47;6319082;28;20078;-64
2022/03/14 03:03:15;;;;;;;24.23;8.00;;;;;;;-12.92;43.93;97223.38;6319087;28;20190;-64
2022/03/14 03:06:22;;;;;;;20.88;7.88;;;;;;;-12.78;43.71;97219.59;6318359;28;20108;-63
2022/03/14 03:09:26;;;;;;;15.07;6.57;;;;;;;-12.60;43.34;97226.03;6320993;28;20043;-63
2022/03/14 03:12:31;;;;;;;26.15;9.77;;;;;;;-12.44;43.34;97239.22;6324221;28;20101;-64
2022/03/14 03:15:37;;;;;;;27.70;9.85;;;;;;;-12.40;43.38;97230.03;6324429;28;20046;-64
2022/03/14 03:18:41;;;;;;;17.27;8.55;;;;;;;-12.20;42.99;97228.06;6324933;28;20040;-63
2022/03/14 03:21:43;;;;;;;26.63;10.70;;;;;;;-12.05;42.90;97228.53;6323201;28;20151;-63
2022/03/14 03:24:44;;;;;;;20.60;7.32;;;;;;;-11.92;42.60;97224.66;6324371;28;20048;-63
2022/03/14 03:27:45;;;;;;;17.52;6.80;;;;;;;-11.79;42.97;97230.91;6324710;28;20485;-65
2022/03/14 03:30:50;;;;;;;19.75;7.20;;;;;;;-11.55;42.32;97225.63;6324593;28;20054;-64
2022/03/14 03:33:51;;;;;;;17.15;7.25;;;;;;;-11.25;41.96;97232.34;6324258;28;20052;-63
2022/03/14 03:36:55;;;;;;;15.63;6.93;;;;;;;-10.99;41.71;97233.00;6324456;28;20044;-64
2022/03/14 03:39:56;;;;;;;14.85;5.80;;;;;;;-10.82;41.47;97235.97;6324045;28;20416;-64
2022/03/14 03:42:58;;;;;;;11.30;4.75;;;;;;;-10.62;40.93;97235.59;6324538;28;20047;-64
2022/03/14 03:45:59;;;;;;;18.40;6.40;;;;;;;-10.43;40.79;97226.72;6323955;28;20051;-63
2022/03/14 03:49:05;;;;;;;15.23;5.45;;;;;;;-10.19;40.75;97235.69;6322775;28;20048;-64
2022/03/14 03:52:12;;;;;;;13.85;4.85;;;;;;;-10.13;40.75;97234.94;6323837;28;20092;-64
2022/03/14 03:55:13;;;;;;;17.83;6.38;;;;;;;-10.17;41.02;97239.97;6324008;28;20056;-64
2022/03/14 03:58:17;;;;;;;17.40;6.05;;;;;;;-10.09;41.00;97249.47;6323957;28;20066;-63
2022/03/14 04:01:21;;;;;;;11.38;5.28;;;;;;;-10.00;41.34;97242.88;6323934;28;20040;-64
2022/03/14 04:04:27;;;;;;;20.85;8.27;;;;;;;-9.85;41.44;97246.56;6324058;28;20135;-65
2022/03/14 04:07:30;;;;;;;14.93;6.70;;;;;;;-9.70;41.58;97249.44;6323464;28;20040;-64
2022/03/14 04:10:31;;;;;;;14.87;7.40;;;;;;;-9.56;41.45;97255.69;6323509;28;20059;-63
2022/03/14 04:13:32;;;;;;;15.77;7.40;;;;;;;-9.42;41.60;97257.66;6323773;28;20040;-64
2022/03/14 04:16:41;;;;;;;20.05;7.45;;;;;;;-9.27;41.69;97257.94;6323736;28;20044;-63
2022/03/14 04:19:43;;;;;;;17.27;7.80;;;;;;;-8.98;41.29;97261.00;6322765;28;20449;-63
2022/03/14 04:22:47;;;;;;;18.27;6.97;;;;;;;-8.61;41.05;97253.97;6320682;28;20048;-64
2022/03/14 04:25:53;;;;;;;27.15;10.95;;;;;;;-8.19;40.95;97261.38;6323515;28;20059;-63
2022/03/14 04:28:54;;;;;;;29.63;12.30;;;;;;;-7.82;40.54;97256.78;6323097;28;20044;-64
2022/03/14 04:31:55;;;;;;;24.20;11.23;;;;;;;-7.51;40.30;97257.19;6323293;28;20423;-64
2022/03/14 04:35:02;;;;;;;24.48;10.15;;;;;;;-7.00;39.35;97245.81;6323248;28;20044;-64
2022/03/14 04:38:07;;;;;;;31.42;12.13;;;;;;;-6.47;38.74;97255.69;6322645;28;20051;-63
2022/03/14 04:41:14;;;;;;;32.80;12.25;;;;;;;-6.25;38.45;97248.16;6322663;28;20137;-63
2022/03/14 04:44:19;;;;;;;29.67;12.27;;;;;;;-6.19;39.60;97258.44;6322357;28;20138;-64
2022/03/14 04:47:22;;;;;;;22.08;9.50;;;;;;;-6.02;38.97;97246.59;6323047;28;20048;-63
2022/03/14 04:50:23;;;;;;;25.95;9.90;;;;;;;-5.71;38.99;97249.31;6322190;28;20055;-63
2022/03/14 04:53:27;;;;;;;26.15;9.15;;;;;;;-5.43;38.90;97243.44;6322748;28;20052;-64
2022/03/14 04:56:30;;;;;;;22.58;9.82;;;;;;;-5.29;39.09;97250.34;6321242;28;20061;-63
2022/03/14 04:59:34;;;;;;;26.33;11.65;;;;;;;-5.16;38.62;97246.94;6320622;28;20084;-64
2022/03/14 05:02:38;;;;;;;27.27;10.65;;;;;;;-5.00;38.85;97255.56;6322485;28;20044;-63
2022/03/14 05:05:45;;;;;;;22.05;10.68;;;;;;;-4.75;38.47;97259.03;6322800;28;20044;-64
2022/03/14 05:08:53;;;;;;;26.63;10.20;;;;;;;-4.49;38.27;97260.78;6322689;28;20118;-63
2022/03/14 05:11:57;;;;;;;24.85;11.20;;;;;;;-4.33;37.81;97258.22;6322372;28;20074;-64
2022/03/14 05:15:04;;;;;;;26.05;11.30;;;;;;;-4.29;37.58;97259.06;6321587;28;20062;-64
2022/03/14 05:18:09;;;;;;;24.27;10.23;;;;;;;-4.26;37.70;97259.06;6321931;28;20523;-63
2022/03/14 05:21:16;;;;;;;20.45;10.38;;;;;;;-4.46;38.39;97255.63;6321052;28;20051;-64
2022/03/14 05:24:23;;;;;;;23.90;10.30;;;;;;;-4.59;38.01;97265.03;6322438;28;20051;-64
2022/03/14 05:27:28;;;;;;;17.48;9.60;;;;;;;-5.00;38.36;97264.09;6321744;28;20039;-63
2022/03/14 05:30:29;;;;;;;20.15;10.57;;;;;;;-5.21;38.58;97261.47;6319597;28;20059;-63
2022/03/14 05:33:33;;;;;;;19.98;10.57;;;;;;;-5.23;38.46;97265.75;6320400;28;20071;-64
2022/03/14 05:36:40;;;;;;;18.00;10.93;;;;;;;-5.34;38.38;97264.84;6321405;28;20054;-64
2022/03/14 05:39:44;;;;;;;22.48;10.55;;;;;;;-5.38;38.83;97265.69;6321134;28;20040;-63
2022/03/14 05:42:49;;;;;;;18.90;9.15;;;;;;;-5.30;38.76;97261.44;6320239;28;20052;-64
2022/03/14 05:45:51;;;;;;;21.95;9.80;;;;;;;-5.04;38.24;97258.94;6320892;28;20138;-65
2022/03/14 05:48:56;;;;;;;17.00;9.00;;;;;;;-0.93;33.44;97265.41;6321553;28;20036;-64
2022/03/14 05:52:02;;;;;;;21.52;9.40;;;;;;;4.56;26.77;97260.97;6321331;28;20051;-64
2022/03/14 05:55:05;;;;;;;18.52;10.35;;;;;;;9.12;22.28;97270.84;6321055;28;20410;-63
2022/03/14 05:58:09;;;;;;;20.55;10.30;;;;;;;11.90;19.96;97269.56;6321002;28;20050;-65
2022/03/14 06:01:10;;;;;;;19.75;12.40;;;;;;;13.56;18.14;97281.41;6320284;28;20118;-64
2022/03/14 06:04:12;;;;;;;25.70;12.30;;;;;;;13.97;17.37;97272.34;6318903;28;20054;-64
2022/03/14 06:07:26;;;;;;;20.83;11.23;;;;;;;14.65;16.63;97284.13;6445585;27;20177;-63
2022/03/14 06:10:33;;;;;;;24.38;13.13;;;;;;;14.67;16.33;97277.78;6419536;27;20088;-63
2022/03/14 06:13:36;;;;;;;23.50;13.73;;;;;;;13.98;16.36;97279.31;6419269;27;20129;-64
2022/03/14 06:16:44;;;;;;;23.60;13.15;;;;;;;14.08;15.98;97277.69;6419519;27;20035;-64
2022/03/14 06:19:45;;;;;;;22.50;13.77;;;;;;;14.18;15.62;97289.28;6419145;27;20103;-64
2022/03/14 06:22:54;;;;;;;21.38;12.77;;;;;;;14.59;15.09;97285.44;6418990;27;20038;-64
2022/03/14 06:25:59;;;;;;;23.80;12.48;;;;;;;14.63;14.11;97281.59;6418593;27;20041;-64
2022/03/14 06:29:01;;;;;;;22.20;12.55;;;;;;;14.16;14.26;97278.00;6418828;27;20046;-64
2022/03/14 06:32:05;;;;;;;19.92;10.88;;;;;;;14.28;13.98;97282.38;6418899;27;20046;-64
2022/03/14 06:35:14;;;;;;;19.95;12.35;;;;;;;15.02;13.00;97276.91;6418624;27;20411;-63
2022/03/14 06:38:15;;;;;;;21.05;11.60;;;;;;;15.94;12.39;97285.66;6399356;27;20038;-65
2022/03/14 06:41:19;;;;;;;17.27;10.30;;;;;;;16.20;11.91;97286.22;6399503;27;20042;-64
2022/03/14 06:44:27;;;;;;;23.27;10.68;;;;;;;16.22;11.87;97288.72;6418344;27;20552;-63
2022/03/14 06:47:29;;;;;;;18.13;8.25;;;;;;;16.60;11.92;97291.75;6399669;27;20050;-64
2022/03/14 06:50:31;;;;;;;17.20;8.88;;;;;;;16.28;11.55;97291.75;6418126;27;20034;-63
2022/03/14 06:53:35;;;;;;;16.95;8.70;;;;;;;15.91;11.91;97291.22;6400261;27;20034;-63
2022/03/14 06:56:42;;;;;;;13.55;8.13;;;;;;;15.46;12.04;97292.03;6418648;27;20042;-64
2022/03/14 06:59:45;;;;;;;17.00;7.43;;;;;;;15.67;11.77;97300.09;6418258;27;20506;-64
2022/03/14 07:02:46;;;;;;;12.47;7.90;;;;;;;16.34;11.44;97299.22;6416856;27;20042;-63
2022/03/14 07:05:48;;;;;;;9.40;6.88;;;;;;;17.28;10.68;97304.75;6399373;27;20058;-64
2022/03/14 07:08:49;;;;;;;14.88;7.40;;;;;;;16.94;10.42;97309.41;6417216;27;20513;-63
2022/03/14 07:11:55;;;;;;;13.82;6.72;;;;;;;16.16;10.74;97306.88;6398861;27;20042;-64
2022/03/14 07:14:59;;;;;;;10.13;6.28;;;;;;;15.85;10.90;97313.78;6417900;27;20503;-64
2022/03/14 07:18:00;;;;;;;11.73;6.10;;;;;;;15.90;10.58;97311.59;6404916;27;20155;-64
2022/03/14 07:21:04;;;;;;;14.43;7.15;;;;;;;16.44;10.47;97304.59;6400101;27;20492;-65
2022/03/14 07:24:08;;;;;;;14.25;7.30;;;;;;;16.35;10.22;97310.69;6399610;27;20408;-64
2022/03/14 07:27:14;;;;;;;12.93;7.90;;;;;;;16.92;10.35;97317.50;6400559;27;20047;-64
2022/03/14 07:30:18;;;;;;;11.82;6.95;;;;;;;17.56;9.88;97305.03;6400694;27;20039;-64
2022/03/14 07:33:21;;;;;;;15.07;7.90;;;;;;;17.95;9.65;97309.59;6400157;27;20410;-64
2022/03/14 07:36:25;;;;;;;17.02;8.05;;;;;;;18.58;9.55;97313.78;6400353;27;20039;-63
2022/03/14 07:39:27;;;;;;;15.70;8.45;;;;;;;18.62;9.66;97310.69;6399961;27;20030;-63
2022/03/14 07:42:28;;;;;;;17.52;9.75;;;;;;;18.96;9.57;97301.47;6399037;27;20050;-63
2022/03/14 07:45:29;;;;;;;21.60;9.73;;;;;;;20.14;9.16;97309.88;6398711;27;20530;-64
2022/03/14 07:48:31;;;;;;;23.27;12.20;;;;;;;22.01;8.05;97300.94;6381444;27;20069;-64
2022/03/14 07:51:37;;;;;;;20.95;12.77;;;;;;;23.64;7.52;97308.41;6399773;27;20119;-64
2022/03/14 07:54:41;;;;;;;16.77;10.20;;;;;;;23.87;7.39;97303.19;6398920;27;20515;-64
2022/03/14 07:57:44;;;;;;;19.83;10.80;;;;;;;23.38;7.49;97307.78;6399707;27;20400;-64
2022/03/14 08:00:46;;;;;;;23.05;10.63;;;;;;;22.78;7.79;97307.06;6398466;27;20047;-64
2022/03/14 08:03:50;;;;;;;19.90;10.65;;;;;;;22.22;7.79;97300.53;6399451;27;20504;-65
2022/03/14 08:06:56;;;;;;;23.13;10.63;;;;;;;22.19;7.93;97301.72;6381065;27;20054;-65
2022/03/14 08:09:58;;;;;;;26.92;11.77;;;;;;;22.23;7.91;97306.75;6399151;27;20510;-64
2022/03/14 08:13:05;;;;;;;22.95;11.30;;;;;;;22.18;7.60;97310.75;6380812;27;20507;-64
2022/03/14 08:16:09;;;;;;;20.30;10.70;;;;;;;23.19;7.46;97308.97;6380775;27;20050;-64
2022/03/14 08:19:11;;;;;;;28.83;9.30;;;;;;;24.82;6.67;97313.00;6398984;27;20046;-64
2022/03/14 08:22:12;;;;;;;15.60;7.45;;;;;;;25.55;6.20;97311.59;6398790;27;20057;-64
2022/03/14 08:25:17;;;;;;;14.85;7.43;;;;;;;25.03;6.37;97315.88;6399007;27;20038;-64
2022/03/14 08:28:21;;;;;;;17.85;7.30;;;;;;;22.97;7.02;97283.63;6397826;27;20509;-64
2022/03/14 08:31:25;;;;;;;16.30;7.13;;;;;;;21.30;7.61;97302.00;6398479;27;20046;-65
2022/03/14 08:34:31;;;;;;;15.23;7.50;;;;;;;19.91;8.50;97295.25;6398802;27;20034;-64
2022/03/14 08:37:41;;;;;;;16.83;7.03;;;;;;;19.91;8.30;97300.56;6397792;27;20453;-65
2022/03/14 08:40:43;;;;;;;16.85;6.97;;;;;;;20.85;7.99;97297.63;6397871;27;20047;-64
2022/03/14 08:43:45;;;;;;;18.50;7.28;;;;;;;21.35;7.55;97302.38;6397089;27;20039;-63
2022/03/14 08:46:49;;;;;;;17.58;6.65;;;;;;;20.80;7.84;97307.94;6397831;27;20047;-64
2022/03/14 08:49:55;;;;;;;14.57;7.00;;;;;;;20.08;8.04;97297.13;6398183;27;20039;-63
2022/03/14 08:52:56;;;;;;;13.90;6.18;;;;;;;20.49;7.93;97305.59;6378922;27;20042;-64
2022/03/14 08:56:02;;;;;;;9.95;6.65;;;;;;;20.59;8.09;97301.06;6398203;27;20134;-64
2022/03/14 08:59:04;;;;;;;10.73;4.97;;;;;;;20.88;8.13;97299.97;6396801;27;20054;-64
2022/03/14 09:02:09;;;;;;;8.48;5.35;;;;;;;20.68;7.96;97299.28;6397834;27;20082;-64
2022/03/14 09:05:11;;;;;;;8.20;4.18;;;;;;;19.93;8.39;97301.28;6396832;27;20053;-64
2022/03/14 09:08:12;;;;;;;7.13;3.67;;;;;;;19.76;8.30;97296.69;6397671;27;20503;-64
2022/03/14 09:11:14;;;;;;;5.20;3.78;;;;;;;20.02;8.26;97295.03;6396811;27;20555;-64
2022/03/14 09:14:15;;;;;;;8.35;3.65;;;;;;;21.20;7.96;97287.88;6377925;27;20076;-64
2022/03/14 09:17:18;;;;;;;;;;;;;;;22.69;7.69;97297.31;6397966;27;20046;-64
2022/03/14 09:20:22;;;;;;;8.50;3.20;;;;;;;22.66;7.43;97286.09;6397493;27;20021;-63
2022/03/14 09:23:24;;;;;;;6.03;3.80;;;;;;;22.78;7.24;97285.59;6396438;27;20456;-64
2022/03/14 09:26:30;;;;;;;7.33;3.73;;;;;;;22.19;7.59;97282.09;6396297;27;20050;-64
2022/03/14 09:29:34;;;;;;;7.55;4.07;;;;;;;21.56;7.77;97277.94;6397458;27;20039;-64
2022/03/14 09:32:35;;;;;;;5.88;3.40;;;;;;;22.43;7.45;97278.66;6396367;27;20057;-64
2022/03/14 09:35:37;;;;;;;5.57;3.30;;;;;;;22.80;7.36;97283.59;6396158;27;20046;-64
2022/03/14 09:38:38;;;;;;;6.75;3.05;;;;;;;22.42;7.44;97291.25;6395825;27;20057;-64
2022/03/14 09:41:43;;;;;;;4.30;2.88;;;;;;;22.31;7.44;97283.50;6396605;27;20113;-64
2022/03/14 09:44:53;;;;;;;5.38;3.42;;;;;;;22.79;7.12;97289.97;6397326;27;20035;-65
2022/03/14 09:47:59;;;;;;;9.73;6.10;;;;;;;21.97;7.44;97281.66;6396486;27;20054;-63
2022/03/14 09:51:01;;;;;;;5.35;3.40;;;;;;;20.41;8.23;97286.81;6395684;27;20038;-64
2022/03/14 09:54:09;;;;;;;6.82;4.03;;;;;;;18.94;8.76;97279.44;6396724;27;20138;-64
2022/03/14 09:57:16;;;;;;;3.88;2.60;;;;;;;18.61;8.80;97284.19;6397065;27;20039;-64
2022/03/14 10:00:20;;;;;;;4.47;2.60;;;;;;;18.45;8.96;97284.72;6396911;27;20134;-64
2022/03/14 10:03:24;;;;;;;4.00;2.63;;;;;;;16.53;9.79;97279.97;6396179;27;20428;-64
2022/03/14 10:06:30;;;;;;;4.10;2.70;;;;;;;15.46;10.42;97284.06;6396332;27;20055;-63
2022/03/14 10:09:37;;;;;;;4.88;3.08;;;;;;;14.82;10.77;97297.78;6396454;27;20042;-64
2022/03/14 10:12:39;;;;;;;5.88;4.03;;;;;;;14.30;11.02;97291.06;6395326;27;20066;-63
2022/03/14 10:15:45;;;;;;;7.05;3.25;;;;;;;14.03;11.14;97282.47;6396610;27;20046;-64
2022/03/14 10:18:58;;;;;;;6.60;4.07;;;;;;;14.85;10.76;97293.25;6395754;27;20043;-64
2022/03/14 10:22:19;;;;;;;5.38;3.53;;;;;;;15.15;10.51;97303.31;6396691;27;20042;-63
2022/03/14 10:25:23;;;;;;;8.02;4.88;;;;;;;14.24;10.83;97302.09;6396679;27;20042;-63
2022/03/14 10:28:32;;;;;;;7.35;4.57;;;;;;;13.47;11.28;97301.41;6396630;27;20125;-64
2022/03/14 10:31:35;;;;;;;8.10;4.28;;;;;;;12.65;11.97;97318.41;6395691;27;20038;-64
2022/03/14 10:34:50;;;;;;;4.97;3.42;;;;;;;12.91;11.60;97306.97;6395123;27;20045;-63
2022/03/14 10:37:58;;;;;;;4.75;2.58;;;;;;;12.37;11.54;97314.97;6395993;27;20063;-63
2022/03/14 10:41:15;;;;;;;4.97;3.10;;;;;;;12.80;11.73;97312.97;6396471;27;20043;-63
2022/03/14 10:44:24;;;;;;;6.10;3.80;;;;;;;12.81;11.78;97308.53;6377693;27;20046;-63
2022/03/14 10:47:26;;;;;;;8.25;4.68;;;;;;;11.20;12.88;97305.53;6395543;27;20047;-63
2022/03/14 10:50:33;;;;;;;9.05;4.47;;;;;;;9.47;13.95;97304.88;6395125;27;20054;-65
2022/03/14 10:53:45;;;;;;;10.00;5.28;;;;;;;8.23;15.35;97306.75;6399893;27;20051;-64
2022/03/14 10:57:07;;;;;;;11.23;5.05;;;;;;;7.18;15.81;97293.25;6400379;27;20039;-64
2022/03/14 11:00:10;;;;;;;8.32;4.78;;;;;;;6.53;16.26;97296.97;6400346;27;20522;-64
2022/03/14 11:03:31;;;;;;;8.07;5.35;;;;;;;6.40;16.17;97301.03;6400777;27;20034;-64
2022/03/14 11:06:36;;;;;;;6.82;4.90;;;;;;;5.70;16.80;97297.66;6400670;27;20100;-66
2022/03/14 11:09:52;;;;;;;12.10;5.22;;;;;;;5.00;17.91;97303.72;6381871;27;20055;-64
2022/03/14 11:13:00;;;;;;;9.43;5.65;;;;;;;4.37;18.04;97302.44;6400746;27;20046;-63
2022/03/14 11:16:04;;;;;;;11.50;6.57;;;;;;;3.30;19.26;97297.09;6400187;27;20368;-64
2022/03/14 11:19:11;;;;;;;12.07;5.90;;;;;;;3.52;19.15;97302.50;6400032;27;20435;-64
2022/03/14 11:22:14;;;;;;;11.05;5.57;;;;;;;3.93;18.84;97302.13;6399659;27;20511;-64
2022/03/14 11:25:22;;;;;;;9.48;5.60;;;;;;;3.48;19.00;97300.91;6400255;27;20046;-64
2022/03/14 11:28:27;;;;;;;11.52;5.57;;;;;;;2.74;19.69;97301.28;6399166;27;20050;-64
2022/03/14 11:31:31;;;;;;;10.02;5.53;;;;;;;2.16;20.58;97294.09;6398985;27;20053;-64
2022/03/14 11:34:39;;;;;;;9.95;5.80;;;;;;;1.88;20.82;97287.88;6400011;27;20039;-64
2022/03/14 11:37:42;;;;;;;14.20;6.70;;;;;;;2.13;20.88;97303.72;6398872;27;20072;-64
2022/03/14 11:40:46;;;;;;;10.93;5.88;;;;;;;2.92;19.98;97290.38;6399955;27;20055;-63
2022/03/14 11:43:48;;;;;;;16.50;6.25;;;;;;;4.15;19.01;97289.28;6399682;27;20380;-66
2022/03/14 11:46:54;;;;;;;9.38;4.50;;;;;;;5.26;18.12;97291.50;6399486;27;20053;-64
2022/03/14 11:49:55;;;;;;;7.13;4.13;;;;;;;6.04;17.16;97293.75;6398772;27;20536;-63
2022/03/14 11:53:05;;;;;;;10.45;4.82;;;;;;;6.59;17.10;97288.00;6381425;27;20035;-65
2022/03/14 11:56:09;;;;;;;7.93;4.10;;;;;;;7.16;16.58;97289.88;6399641;27;20039;-64
2022/03/14 11:59:10;;;;;;;7.40;4.85;;;;;;;7.40;16.66;97284.47;6398741;27;20053;-64
2022/03/14 12:02:12;;;;;;;8.02;4.90;;;;;;;7.69;16.68;97280.47;6398935;27;20034;-63
2022/03/14 12:05:20;;;;;;;7.32;4.85;;;;;;;8.07;16.38;97290.94;6398448;27;20038;-64
2022/03/14 12:08:24;;;;;;;7.15;4.53;;;;;;;7.89;16.42;97282.16;6398827;27;20145;-64
2022/03/14 12:11:26;;;;;;;9.38;4.85;;;;;;;7.48;16.64;97277.09;6398439;27;20087;-65
2022/03/14 12:14:33;;;;;;;7.53;4.78;;;;;;;7.04;17.34;97277.31;6398435;27;20070;-64
2022/03/14 12:17:42;;;;;;;10.02;5.28;;;;;;;6.83;17.69;97278.28;6398120;27;20051;-64
2022/03/14 12:20:47;;;;;;;9.27;5.18;;;;;;;7.38;17.52;97286.28;6397464;27;20516;-64
2022/03/14 12:23:53;;;;;;;8.10;5.32;;;;;;;7.76;17.07;97281.06;6397618;27;20053;-64
2022/03/14 12:27:01;;;;;;;5.07;3.92;;;;;;;7.10;17.88;97282.28;6397660;27;20136;-64
2022/03/14 12:30:08;;;;;;;7.78;4.60;;;;;;;6.86;17.69;97288.63;6398221;27;20051;-65
2022/03/14 12:33:10;;;;;;;7.93;4.13;;;;;;;6.97;17.95;97291.63;6379306;27;20066;-65
2022/03/14 12:36:19;;;;;;;7.00;3.97;;;;;;;6.08;18.42;97292.72;6398461;27;20137;-65
2022/03/14 12:39:25;;;;;;;9.38;4.43;;;;;;;5.35;19.37;97283.31;6398660;27;20571;-65
2022/03/14 12:42:38;;;;;;;9.88;4.25;;;;;;;4.79;19.74;97281.91;6398397;27;20039;-64
2022/03/14 12:45:48;;;;;;;7.95;5.50;;;;;;;4.44;20.54;97289.16;6397230;27;20047;-64
2022/03/14 12:48:54;;;;;;;11.07;5.18;;;;;;;4.02;20.71;97287.09;6398243;27;20043;-64
2022/03/14 12:52:21;;;;;;;7.70;5.28;;;;;;;3.53;21.40;97288.59;6378759;27;20043;-65
2022/03/14 12:55:26;;;;;;;6.47;4.43;;;;;;;2.89;21.63;97280.94;6362108;27;20141;-64
2022/03/14 12:58:33;;;;;;;8.43;4.35;;;;;;;2.51;22.13;97294.94;6397175;27;20065;-64
2022/03/14 13:01:40;;;;;;;10.07;5.78;;;;;;;1.66;23.27;97292.69;6397062;27;20087;-63
2022/03/14 13:04:42;;;;;;;9.52;5.43;;;;;;;0.48;24.44;97292.50;6396825;27;20054;-66
2022/03/14 13:08:00;;;;;;;10.38;5.95;;;;;;;-0.57;26.01;97301.09;6397671;27;20046;-65
2022/03/14 13:11:06;;;;;;;7.80;5.13;;;;;;;-1.38;27.28;97308.13;6396714;27;20360;-64
2022/03/14 13:14:23;;;;;;;12.07;5.97;;;;;;;-2.30;28.00;97304.63;6396125;27;20042;-65
2022/03/14 13:17:25;;;;;;;9.88;5.28;;;;;;;-3.53;29.30;97308.66;6396592;27;20087;-64
2022/03/14 13:20:28;;;;;;;8.57;5.40;;;;;;;-4.69;31.26;97315.53;6397604;27;20045;-65
2022/03/14 13:23:32;;;;;;;9.68;5.38;;;;;;;-5.46;32.77;97319.53;6378251;27;20042;-65
2022/03/14 13:26:41;;;;;;;10.10;4.70;;;;;;;-6.25;33.03;97325.00;6397155;27;20496;-65
2022/03/14 13:29:46;;;;;;;9.35;4.97;;;;;;;-6.74;33.99;97329.63;6395916;27;20047;-66
2022/03/14 13:32:55;;;;;;;10.05;5.78;;;;;;;-7.32;34.87;97330.69;6397346;27;20427;-65
2022/03/14 13:35:59;;;;;;;12.00;5.50;;;;;;;-7.68;34.93;97339.59;6396172;27;20515;-65
2022/03/14 13:39:03;;;;;;;;;;;;;;;-7.82;34.02;97337.69;6396580;27;20042;-65
2022/03/14 13:42:05;;;;;;;11.57;4.63;;;;;;;-8.19;35.22;97332.88;6396290;27;19919;-65
2022/03/14 13:45:09;;;;;;;13.65;5.57;;;;;;;-8.48;36.13;97336.69;6396155;27;20452;-65
2022/03/14 13:48:19;;;;;;;11.82;6.03;;;;;;;-8.77;36.22;97342.13;6396886;27;20379;-64
2022/03/14 13:51:42;;;;;;;13.80;5.55;;;;;;;-8.99;36.77;97350.22;6396734;27;20570;-64
2022/03/14 13:54:49;;;;;;;10.38;4.60;;;;;;;-9.23;36.99;97351.44;6396789;27;20434;-65
2022/03/14 13:58:00;;;;;;;7.90;4.18;;;;;;;-9.34;38.10;97358.88;6397687;27;20043;-64
2022/03/14 14:01:01;;;;;;;5.95;3.90;;;;;;;-9.54;38.63;97355.94;6396313;27;20057;-64
2022/03/14 14:04:16;;;;;;;8.25;4.93;;;;;;;-9.98;39.31;97327.78;6396741;27;20039;-64
2022/03/14 14:07:23;;;;;;;9.85;5.00;;;;;;;-9.90;39.72;97357.66;6345585;28;20126;-65
2022/03/14 14:10:32;;;;;;;13.05;6.13;;;;;;;-10.10;40.64;97368.25;6345310;28;20501;-64
2022/03/14 14:13:49;;;;;;;8.60;4.35;;;;;;;-10.28;39.71;97367.81;6344386;28;20530;-64
2022/03/14 14:16:51;;;;;;;8.82;4.50;;;;;;;-10.40;39.65;97369.22;6344839;28;20087;-64
2022/03/14 14:20:05;;;;;;;10.23;5.15;;;;;;;-10.49;40.86;97363.94;6345020;28;20444;-64
2022/03/14 14:23:12;;;;;;;17.75;7.72;;;;;;;-10.52;40.37;97363.84;6344903;28;20130;-65
2022/03/14 14:26:14;;;;;;;19.77;10.05;;;;;;;-10.64;39.78;97366.09;6344891;28;20051;-63